Relevés horaires Cimetta (Suisse)


Relevés horaires à Cimetta - Dimanche 23 Sept. 2018
Heure UTC1 Température [°C] Vent [km/h] Hum. [%] Pres.4 [hPa] Visi. [Km] Nébu. [octa] Préc.5 [mm] Cond.
2m. Res. Ros. Dir.2 Vit. Moy. Raf.3
23:00 13.2 13.2 13.0 OSO 3.7 -- -- 99 850 -- -- -- --
22:00 12.8 12.4 12.8 SSO 7.4 -- -- 100 850 -- -- -- --
21:00 13.3 12.7 13.3 SO 9.3 -- 24.1 100 850(-1.3/3h) -- -- -- --
20:00 13.4 12.3 13.4 SO 13.0 -- -- 100 850 -- -- -- --
19:00 13.7 12.3 13.7 SO 16.7 -- -- 100 850 -- -- -- --
18:00 13.8 13.3 13.8 SSO 9.3 -- 18.5 100 850(-0.9/3h) -- -- 0/12h
--
17:00 13.9 13.9 13.6 SSE 5.6 -- -- 98 850 -- -- -- --
16:00 14.0 13 13.8 SSO 13.0 -- -- 99 850 -- -- -- --
15:00 14.4 14 13.7 SSO 9.3 -- 16.7 96 850(-1.5/3h) -- -- -- --
14:00 17.4 17.4 13.4 S 7.4 -- -- 77 850 -- -- -- --
13:00 19.0 19.0 14.1 SSO 5.6 -- -- 73 850 -- -- -- --
12:00 17.3 17.3 13.7 S 5.6 -- 18.5 79 850(-0.6/3h) -- -- 0/6h
--
11:00 16.3 16.3 13.1 S 7.4 -- -- 81 850 -- -- -- --
10:00 17.6 17.6 14.2 ENE 5.6 -- -- 80 850 -- -- -- --
09:00 18.6 18.6 13.1 E 1.9 -- 13.0 70 850(0.6/3h) -- -- -- --
08:00 15.6 15.6 12.6 ENE 3.7 -- -- 82 850 -- -- -- --
07:00 15.0 15.0 10.5 NO 1.9 -- -- 74 850 -- -- -- --
06:00 12.9 12.9 11.0 NO 0.0 -- 9.3 88 850(0.0/3h) -- -- 0/12h
0/24h
--
05:00 12.8 12.4 11.6 SO 7.4 -- -- 92 850 -- -- -- --
04:00 12.4 12.4 12.1 SSO 3.7 -- -- 98 850 -- -- -- --
03:00 12.5 12.5 11.6 SSO 3.7 -- 5.6 94 850(-0.9/3h) -- -- -- --
02:00 12.6 12.6 11.8 O 3.7 -- -- 95 850 -- -- -- --
01:00 12.9 12.9 11.9 SO 1.9 -- -- 94 850 -- -- -- --
00:00 13.1 13.1 12.1 SO 1.9 -- 16.7 94 850(0.1/3h) -- -- 0/6h
--

1 Coordinated Universal Time. Actuellement il est 19:00 locale et 17:00 UTC.

2 Le vent souffle depuis la direction indiquée vers la direction oposée.

3 Les rafales max. sont disponible 40 min après l'heure du relevé.

4 Pour les stations d'altitude (plus de 600m) le géopotentiel du niveau le plus proche de la pression obligatoire est indiqué.

5 Les stations disposant d'un diffuseur peuvent indiquer "trace". Cela signifie que des précipitations ont touchés le sol mais que la quantité est inférieure à 0.1 mm.

Récapitulatif de la journée
Température [°C] Vent [km/h] Ensoleillement4 [h] Precipitations totale5 [mm] Pression [Hpa]
Min1 Max.2 Moy.3 Max. Min Max.
12.3 19.0 0 24.1 8 h 18 min 0.5 850.0 850.0

1 Température minimale relevée entre 18:00 UTC la veille et 18:00 UTC le jour donné.

2 Température maximale relevée entre 06:00 UTC le jour donné et 06:00 UTC le lendemain.

3 Vent moyen de la journée basé sur les relevés horaires.

4 Ensoleillement en heures relevé entre 06:00 UTC la veille et 06:00 UTC le jour donné.

5 Précipitations totales tombées entre 06:00 UTC la jour donné et 06:00 UTC le lendemain.

Graphiques horaires